Lomond, Canada
Current Conditions -  °F | °C
As of 8:00 PM on Monday 24 Nov 2014 (Local Time) from CYDF Reporting Station
Snow Showers Snow Showers  
Wind Chill: -3°   Ceiling: 5500
Heat Index:   Visibility: 15mi
Dew Point: -4°   Wind: 5mph
Humidity: 75%   Direction: NA
Pressure: 30.2"   Gusts: NA
Location:  49.45°N, 57.93°W
Report Text: CYDF 242300Z VRB04KT 15SM -SHSN FEW030 OVC055 00/M04 A3020 RMK SC1SC7 SLP227
Loading
Personal Weather Stations






























Interactive Weather Map New forecast layout! Learn more

10-Day Weather Forecast

Advertisements
Track Severe Weather on mobile